Time;durP1;ratioP1;P1;durP2;ratioP2;P2;SDS_P1;SDS_P2;PMS_P1;PMS_P2;Temp;Humidity;BMP_temperature;BMP_pressure;BME280_temperature;BME280_humidity;BME280_pressure;Samples;Min_cycle;Max_cycle;Signal;HPM_P1;HPM_P2
2022/09/13 00:01:24;;;;;;;;;;;;;;;;;;5059651;28;20253;-62
2022/09/13 00:03:49;;;;;;;;;;;;;;;;;;5085188;28;20303;-62
2022/09/13 00:06:14;;;;;;;;;;;;;;;;;;5081929;28;20365;-62
2022/09/13 00:08:39;;;;;;;;;;;;;;;;;;5064501;28;19915;-62
2022/09/13 00:11:04;;;;;;;;;;;;;;;;;;5082129;28;19916;-62
2022/09/13 00:13:30;;;;;;;;;;;;;;;;;;5078856;28;20361;-62
2022/09/13 00:15:55;;;;;;;;;;;;;;;;;;5085840;28;20391;-62
2022/09/13 00:18:20;;;;;;;;;;;;;;;;;;5074393;28;20364;-61
2022/09/13 00:20:45;;;;;;;;;;;;;;;;;;5088778;28;19920;-61
2022/09/13 00:23:10;;;;;;;;;;;;;;;;;;5073817;28;20011;-62
2022/09/13 00:25:35;;;;;;;;;;;;;;;;;;5090652;28;19935;-62
2022/09/13 00:28:01;;;;;;;;;;;;;;;;;;5088416;28;19974;-62
2022/09/13 00:30:26;;;;;;;;;;;;;;;;;;5086912;28;19916;-62
2022/09/13 00:32:51;;;;;;;;;;;;;;;;;;5081595;28;19916;-62
2022/09/13 00:35:16;;;;;;;;;;;;;;;;;;5088419;28;19913;-62
2022/09/13 00:37:41;;;;;;;;;;;;;;;;;;5091683;28;19962;-62
2022/09/13 00:40:06;;;;;;;;;;;;;;;;;;5081111;28;19912;-62
2022/09/13 00:42:32;;;;;;;;;;;;;;;;;;5073333;28;19939;-62
2022/09/13 00:44:57;;;;;;;;;;;;;;;;;;5084827;28;19912;-61
2022/09/13 00:47:22;;;;;;;;;;;;;;;;;;5083695;28;19919;-62
2022/09/13 00:49:47;;;;;;;;;;;;;;;;;;5082612;28;19916;-62
2022/09/13 00:52:12;;;;;;;;;;;;;;;;;;5079509;28;19923;-62
2022/09/13 00:54:39;;;;;;;;;;;;;;;;;;5075059;28;19919;-62
2022/09/13 00:57:04;;;;;;;;;;;;;;;;;;5080383;28;19923;-62
2022/09/13 00:59:30;;;;;;;;;;;;;;;;;;5081109;28;19912;-62
2022/09/13 01:01:55;;;;;;;;;;;;;;;;;;5080410;28;19919;-62
2022/09/13 01:04:20;;;;;;;;;;;;;;;;;;5080456;28;19960;-62
2022/09/13 01:06:45;;;;;;;;;;;;;;;;;;5074856;28;19912;-62
2022/09/13 01:09:10;;;;;;;;;;;;;;;;;;5083926;28;19998;-62
2022/09/13 01:11:35;;;;;;;;;;;;;;;;;;5079797;28;19938;-62
2022/09/13 01:14:00;;;;;;;;;;;;;;;;;;5072763;28;19912;-62
2022/09/13 01:16:26;;;;;;;;;;;;;;;;;;5081680;28;19963;-62
2022/09/13 01:18:51;;;;;;;;;;;;;;;;;;5099262;28;19950;-62
2022/09/13 01:21:16;;;;;;;;;;;;;;;;;;5079939;28;19921;-62
2022/09/13 01:23:41;;;;;;;;;;;;;;;;;;5084187;28;19966;-63
2022/09/13 01:26:06;;;;;;;;;;;;;;;;;;5083480;28;19916;-62
2022/09/13 01:28:31;;;;;;;;;;;;;;;;;;5062382;28;19961;-62
2022/09/13 01:30:57;;;;;;;;;;;;;;;;;;5060495;28;19927;-62
2022/09/13 01:33:22;;;;;;;;;;;;;;;;;;5082473;28;19919;-62
2022/09/13 01:35:47;;;;;;;;;;;;;;;;;;5082827;28;19962;-62
2022/09/13 01:38:13;;;;;;;;;;;;;;;;;;5078427;28;19920;-62
2022/09/13 01:40:38;;;;;;;;;;;;;;;;;;5079292;28;20369;-61
2022/09/13 01:43:03;;;;;;;;;;;;;;;;;;5084963;28;20457;-61
2022/09/13 01:45:28;;;;;;;;;;;;;;;;;;5089887;28;19912;-61
2022/09/13 01:47:53;;;;;;;;;;;;;;;;;;5062294;28;20364;-61
2022/09/13 01:50:18;;;;;;;;;;;;;;;;;;5081494;28;20390;-62
2022/09/13 01:52:44;;;;;;;;;;;;;;;;;;5083897;28;20003;-61
2022/09/13 01:55:09;;;;;;;;;;;;;;;;;;5087639;28;19918;-61
2022/09/13 01:57:34;;;;;;;;;;;;;;;;;;5080286;28;19923;-61
2022/09/13 01:59:59;;;;;;;;;;;;;;;;;;5073446;28;20003;-61
2022/09/13 02:02:24;;;;;;;;;;;;;;;;;;5079387;28;19912;-62
2022/09/13 02:04:53;;;;;;;;;;;;;;;;;;5080392;28;19977;-61
2022/09/13 02:07:18;;;;;;;;;;;;;;;;;;5055326;28;19916;-61
2022/09/13 02:09:44;;;;;;;;;;;;;;;;;;5079805;28;19917;-62
2022/09/13 02:12:09;;;;;;;;;;;;;;;;;;5085988;28;19965;-62
2022/09/13 02:14:34;;;;;;;;;;;;;;;;;;5082436;28;19916;-62
2022/09/13 02:16:59;;;;;;;;;;;;;;;;;;5093561;28;19920;-62
2022/09/13 02:19:24;;;;;;;;;;;;;;;;;;5087044;28;20007;-62
2022/09/13 02:21:50;;;;;;;;;;;;;;;;;;5083019;28;20348;-61
2022/09/13 02:24:15;;;;;;;;;;;;;;;;;;5081972;28;19983;-62
2022/09/13 02:26:40;;;;;;;;;;;;;;;;;;5079905;28;19948;-62
2022/09/13 02:29:06;;;;;;;;;;;;;;;;;;5072807;28;19913;-62
2022/09/13 02:31:32;;;;;;;;;;;;;;;;;;5083057;28;20261;-62
2022/09/13 02:33:57;;;;;;;;;;;;;;;;;;5083854;28;20049;-62
2022/09/13 02:36:22;;;;;;;;;;;;;;;;;;5075090;28;19923;-62
2022/09/13 02:38:47;;;;;;;;;;;;;;;;;;5074816;28;19926;-62
2022/09/13 02:41:13;;;;;;;;;;;;;;;;;;5078105;28;20013;-62
2022/09/13 02:43:40;;;;;;;;;;;;;;;;;;5082063;28;20372;-63
2022/09/13 02:46:06;;;;;;;;;;;;;;;;;;5060980;28;20391;-62
2022/09/13 02:48:32;;;;;;;;;;;;;;;;;;5090768;28;20387;-61
2022/09/13 02:50:57;;;;;;;;;;;;;;;;;;5074047;28;20331;-61
2022/09/13 02:53:23;;;;;;;;;;;;;;;;;;5084162;28;19920;-61
2022/09/13 02:55:48;;;;;;;;;;;;;;;;;;5091888;28;19978;-61
2022/09/13 02:58:13;;;;;;;;;;;;;;;;;;5083059;28;20027;-62
2022/09/13 03:00:38;;;;;;;;;;;;;;;;;;5080320;28;19916;-62
2022/09/13 03:03:03;;;;;;;;;;;;;;;;;;5093535;28;19956;-62
2022/09/13 03:05:28;;;;;;;;;;;;;;;;;;5085162;28;19919;-62
2022/09/13 03:07:53;;;;;;;;;;;;;;;;;;5078124;28;20376;-63
2022/09/13 03:10:19;;;;;;;;;;;;;;;;;;5092646;28;19955;-63
2022/09/13 03:12:44;;;;;;;;;;;;;;;;;;5063362;28;19923;-62
2022/09/13 03:15:10;;;;;;;;;;;;;;;;;;5087334;28;19920;-62
2022/09/13 03:17:35;;;;;;;;;;;;;;;;;;5068712;28;19916;-63
2022/09/13 03:20:02;;;;;;;;;;;;;;;;;;5074322;28;19959;-62
2022/09/13 03:22:27;;;;;;;;;;;;;;;;;;5061623;28;19967;-62
2022/09/13 03:24:52;;;;;;;;;;;;;;;;;;5072524;28;19960;-63
2022/09/13 03:27:17;;;;;;;;;;;;;;;;;;5047257;28;19936;-62
2022/09/13 03:29:42;;;;;;;;;;;;;;;;;;5058940;28;19917;-62
2022/09/13 03:32:08;;;;;;;;;;;;;;;;;;5045279;28;19931;-62
2022/09/13 03:34:33;;;;;;;;;;;;;;;;;;5066087;28;19920;-62
2022/09/13 03:36:58;;;;;;;;;;;;;;;;;;5062582;28;19918;-62
2022/09/13 03:39:23;;;;;;;;;;;;;;;;;;5064963;28;19926;-62
2022/09/13 03:41:50;;;;;;;;;;;;;;;;;;5051666;28;19940;-61
2022/09/13 03:44:15;;;;;;;;;;;;;;;;;;5054724;28;19920;-62
2022/09/13 03:46:40;;;;;;;;;;;;;;;;;;5070046;28;20303;-61
2022/09/13 03:49:05;;;;;;;;;;;;;;;;;;5074798;28;20265;-62
2022/09/13 03:51:30;;;;;;;;;;;;;;;;;;5068311;28;20273;-61
2022/09/13 03:53:56;;;;;;;;;;;;;;;;;;5065210;28;20023;-61
2022/09/13 03:56:21;;;;;;;;;;;;;;;;;;5069477;28;19919;-62
2022/09/13 03:58:46;;;;;;;;;;;;;;;;;;5060984;28;19920;-61
2022/09/13 04:01:11;;;;;;;;;;;;;;;;;;5036458;28;19913;-62
2022/09/13 04:03:36;;;;;;;;;;;;;;;;;;5054098;28;19916;-62
2022/09/13 04:06:02;;;;;;;;;;;;;;;;;;5059716;28;19995;-62
2022/09/13 04:08:27;;;;;;;;;;;;;;;;;;5072184;28;19912;-62
2022/09/13 04:10:52;;;;;;;;;;;;;;;;;;5055437;28;20395;-62
2022/09/13 04:13:17;;;;;;;;;;;;;;;;;;5064015;28;19966;-62
2022/09/13 04:15:42;;;;;;;;;;;;;;;;;;5061882;28;20184;-62
2022/09/13 04:18:08;;;;;;;;;;;;;;;;;;5086266;28;19920;-62
2022/09/13 04:20:34;;;;;;;;;;;;;;;;;;5084864;28;20002;-63
2022/09/13 04:22:59;;;;;;;;;;;;;;;;;;5075800;28;19913;-62
2022/09/13 04:25:25;;;;;;;;;;;;;;;;;;5062196;28;20324;-62
2022/09/13 04:27:50;;;;;;;;;;;;;;;;;;5088030;28;20316;-63
2022/09/13 04:30:15;;;;;;;;;;;;;;;;;;5064054;28;19997;-62
2022/09/13 04:32:40;;;;;;;;;;;;;;;;;;5078324;28;19955;-62
2022/09/13 04:35:07;;;;;;;;;;;;;;;;;;5062252;28;19919;-65
2022/09/13 04:37:32;;;;;;;;;;;;;;;;;;5059591;28;20365;-65
2022/09/13 04:39:57;;;;;;;;;;;;;;;;;;5069912;28;19916;-65
2022/09/13 04:42:22;;;;;;;;;;;;;;;;;;5084056;28;19951;-66
2022/09/13 04:44:48;;;;;;;;;;;;;;;;;;5084443;28;19966;-66
2022/09/13 04:47:14;;;;;;;;;;;;;;;;;;5060860;28;19916;-64
2022/09/13 04:49:39;;;;;;;;;;;;;;;;;;5083845;28;19920;-65
2022/09/13 04:52:04;;;;;;;;;;;;;;;;;;5071062;28;19920;-65
2022/09/13 04:54:30;;;;;;;;;;;;;;;;;;5060141;28;19912;-65
2022/09/13 04:56:55;;;;;;;;;;;;;;;;;;5074428;28;19958;-65
2022/09/13 04:59:20;;;;;;;;;;;;;;;;;;5082697;28;19908;-66
2022/09/13 05:01:45;;;;;;;;;;;;;;;;;;5074224;28;19974;-64
2022/09/13 05:04:10;;;;;;;;;;;;;;;;;;5063406;28;19908;-65
2022/09/13 05:06:35;;;;;;;;;;;;;;;;;;5075098;28;19927;-65
2022/09/13 05:09:01;;;;;;;;;;;;;;;;;;5075008;28;19908;-65
2022/09/13 05:11:26;;;;;;;;;;;;;;;;;;5058775;28;19912;-65
2022/09/13 05:13:53;;;;;;;;;;;;;;;;;;5075932;28;19919;-65
2022/09/13 05:16:18;;;;;;;;;;;;;;;;;;5083791;28;19928;-65
2022/09/13 05:18:43;;;;;;;;;;;;;;;;;;5073082;28;20265;-65
2022/09/13 05:21:08;;;;;;;;;;;;;;;;;;5081339;28;20311;-65
2022/09/13 05:23:34;;;;;;;;;;;;;;;;;;5086039;28;19916;-65
2022/09/13 05:25:59;;;;;;;;;;;;;;;;;;5080996;28;20264;-66
2022/09/13 05:28:24;;;;;;;;;;;;;;;;;;5083698;28;20406;-64
2022/09/13 05:30:49;;;;;;;;;;;;;;;;;;5058341;28;19923;-65
2022/09/13 05:33:14;;;;;;;;;;;;;;;;;;5083135;28;19919;-65
2022/09/13 05:35:39;;;;;;;;;;;;;;;;;;5087616;28;19912;-65
2022/09/13 05:38:05;;;;;;;;;;;;;;;;;;5076508;28;19966;-66
2022/09/13 05:40:30;;;;;;;;;;;;;;;;;;5061861;28;19949;-65
2022/09/13 05:42:55;;;;;;;;;;;;;;;;;;5081989;28;19917;-66
2022/09/13 05:45:20;;;;;;;;;;;;;;;;;;5063757;28;19967;-66
2022/09/13 05:47:45;;;;;;;;;;;;;;;;;;5099157;28;20342;-65
2022/09/13 05:50:11;;;;;;;;;;;;;;;;;;5089049;28;19912;-66
2022/09/13 05:52:36;;;;;;;;;;;;;;;;;;5070818;28;20375;-65
2022/09/13 05:55:01;;;;;;;;;;;;;;;;;;5077881;28;19915;-66
2022/09/13 05:57:26;;;;;;;;;;;;;;;;;;5054463;28;19995;-65
2022/09/13 05:59:51;;;;;;;;;;;;;;;;;;5054539;28;19919;-66
2022/09/13 06:02:17;;;;;;;;;;;;;;;;;;5074811;28;20257;-66
2022/09/13 06:04:42;;;;;;;;;;;;;;;;;;5092018;28;19908;-66
2022/09/13 06:07:07;;;;;;;;;;;;;;;;;;5077198;28;20366;-65
2022/09/13 06:09:32;;;;;;;;;;;;;;;;;;5074581;28;20368;-66
2022/09/13 06:11:58;;;;;;;;;;;;;;;;;;5060813;28;19962;-66
2022/09/13 06:14:23;;;;;;;;;;;;;;;;;;5054397;28;20284;-66
2022/09/13 06:16:48;;;;;;;;;;;;;;;;;;5076999;28;20364;-66
2022/09/13 06:19:13;;;;;;;;;;;;;;;;;;5092133;28;19961;-66
2022/09/13 06:21:38;;;;;;;;;;;;;;;;;;5087661;28;19926;-66
2022/09/13 06:24:04;;;;;;;;;;;;;;;;;;5077940;28;19917;-66
2022/09/13 06:26:29;;;;;;;;;;;;;;;;;;5070867;28;19956;-66
2022/09/13 06:28:54;;;;;;;;;;;;;;;;;;5072872;28;20364;-66
2022/09/13 06:31:19;;;;;;;;;;;;;;;;;;5073646;28;19923;-66
2022/09/13 06:33:44;;;;;;;;;;;;;;;;;;5079076;28;19912;-66
2022/09/13 06:36:09;;;;;;;;;;;;;;;;;;5092156;28;19919;-65
2022/09/13 06:38:34;;;;;;;;;;;;;;;;;;5083326;28;19963;-65
2022/09/13 06:41:00;;;;;;;;;;;;;;;;;;5072192;28;19923;-66
2022/09/13 06:43:25;;;;;;;;;;;;;;;;;;5091540;28;19987;-65
2022/09/13 06:45:50;;;;;;;;;;;;;;;;;;5087249;28;19950;-65
2022/09/13 06:48:17;;;;;;;;;;;;;;;;;;5081433;28;20003;-65
2022/09/13 06:50:43;;;;;;;;;;;;;;;;;;5067159;28;20304;-65
2022/09/13 06:53:08;;;;;;;;;;;;;;;;;;5084705;28;19912;-66
2022/09/13 06:55:33;;;;;;;;;;;;;;;;;;5074033;28;19977;-65
2022/09/13 06:57:58;;;;;;;;;;;;;;;;;;5077531;28;20364;-65
2022/09/13 07:00:24;;;;;;;;;;;;;;;;;;5072186;28;20432;-65
2022/09/13 07:02:49;;;;;;;;;;;;;;;;;;5072451;28;19987;-66
2022/09/13 07:05:16;;;;;;;;;;;;;;;;;;5112456;28;19908;-66
2022/09/13 07:07:41;;;;;;;;;;;;;;;;;;5094648;28;19957;-66
2022/09/13 07:10:07;;;;;;;;;;;;;;;;;;5075968;28;19912;-66
2022/09/13 07:12:32;;;;;;;;;;;;;;;;;;5071691;28;19967;-65
2022/09/13 07:14:57;;;;;;;;;;;;;;;;;;5071306;28;19913;-65
2022/09/13 07:17:22;;;;;;;;;;;;;;;;;;5068751;28;19932;-66
2022/09/13 07:19:47;;;;;;;;;;;;;;;;;;5093915;28;19919;-66
2022/09/13 07:22:12;;;;;;;;;;;;;;;;;;5090391;28;19912;-66
2022/09/13 07:24:37;;;;;;;;;;;;;;;;;;5079512;28;19918;-66
2022/09/13 07:27:03;;;;;;;;;;;;;;;;;;5057405;28;19954;-66
2022/09/13 07:29:28;;;;;;;;;;;;;;;;;;5074537;28;20332;-66
2022/09/13 07:31:53;;;;;;;;;;;;;;;;;;5075137;28;20117;-66
2022/09/13 07:34:19;;;;;;;;;;;;;;;;;;5083319;28;19920;-66
2022/09/13 07:36:45;;;;;;;;;;;;;;;;;;5074960;28;19909;-65
2022/09/13 07:39:10;;;;;;;;;;;;;;;;;;5074312;28;20421;-65
2022/09/13 07:41:36;;;;;;;;;;;;;;;;;;5074952;28;19913;-65
2022/09/13 07:44:01;;;;;;;;;;;;;;;;;;5074926;28;19908;-66
2022/09/13 07:46:26;;;;;;;;;;;;;;;;;;5086643;28;19911;-66
2022/09/13 07:48:52;;;;;;;;;;;;;;;;;;5103487;28;19956;-66
2022/09/13 07:51:17;;;;;;;;;;;;;;;;;;5086311;28;19970;-66
2022/09/13 07:53:42;;;;;;;;;;;;;;;;;;5073917;28;19912;-65
2022/09/13 07:56:07;;;;;;;;;;;;;;;;;;5089399;28;19916;-66
2022/09/13 07:58:32;;;;;;;;;;;;;;;;;;5089239;28;19920;-65
2022/09/13 08:00:57;;;;;;;;;;;;;;;;;;5061691;28;19917;-66
2022/09/13 08:03:22;;;;;;;;;;;;;;;;;;5079144;28;20242;-66
2022/09/13 08:05:48;;;;;;;;;;;;;;;;;;5075276;28;20261;-65
2022/09/13 08:08:13;;;;;;;;;;;;;;;;;;5079931;28;19912;-65
2022/09/13 08:10:38;;;;;;;;;;;;;;;;;;5055423;28;19995;-65
2022/09/13 08:13:03;;;;;;;;;;;;;;;;;;5057508;28;19939;-65
2022/09/13 08:15:28;;;;;;;;;;;;;;;;;;5073652;28;19964;-65
2022/09/13 08:17:53;;;;;;;;;;;;;;;;;;5082524;28;20292;-65
2022/09/13 08:20:19;;;;;;;;;;;;;;;;;;5073725;28;19913;-64
2022/09/13 08:22:44;;;;;;;;;;;;;;;;;;5089490;28;19967;-66
2022/09/13 08:25:09;;;;;;;;;;;;;;;;;;5088305;28;19908;-65
2022/09/13 08:27:34;;;;;;;;;;;;;;;;;;5082547;28;20296;-66
2022/09/13 08:29:59;;;;;;;;;;;;;;;;;;5094443;28;20360;-66
2022/09/13 08:32:25;;;;;;;;;;;;;;;;;;5094244;28;19912;-66
2022/09/13 08:34:50;;;;;;;;;;;;;;;;;;5095952;28;19935;-64
2022/09/13 08:37:15;;;;;;;;;;;;;;;;;;5066761;28;19912;-66
2022/09/13 08:39:40;;;;;;;;;;;;;;;;;;5073944;28;19963;-66
2022/09/13 08:42:05;;;;;;;;;;;;;;;;;;5067910;28;19919;-66
2022/09/13 08:44:31;;;;;;;;;;;;;;;;;;5086184;28;19919;-66
2022/09/13 08:46:56;;;;;;;;;;;;;;;;;;5064566;28;19913;-65
2022/09/13 08:49:21;;;;;;;;;;;;;;;;;;5081030;28;19912;-64
2022/09/13 08:51:46;;;;;;;;;;;;;;;;;;5093271;28;20007;-66
2022/09/13 08:54:12;;;;;;;;;;;;;;;;;;5089104;28;19919;-66
2022/09/13 08:56:37;;;;;;;;;;;;;;;;;;5077186;28;19923;-66
2022/09/13 08:59:02;;;;;;;;;;;;;;;;;;5088080;28;19913;-66
2022/09/13 09:01:27;;;;;;;;;;;;;;;;;;5062147;28;20382;-66
2022/09/13 09:03:52;;;;;;;;;;;;;;;;;;5082088;28;19998;-66
2022/09/13 09:06:18;;;;;;;;;;;;;;;;;;5059521;28;19912;-66
2022/09/13 09:08:45;;;;;;;;;;;;;;;;;;5092827;28;19958;-66
2022/09/13 09:11:10;;;;;;;;;;;;;;;;;;5058599;28;19923;-66
2022/09/13 09:13:35;;;;;;;;;;;;;;;;;;5091245;28;20326;-66
2022/09/13 09:16:01;;;;;;;;;;;;;;;;;;5058358;28;20341;-65
2022/09/13 09:18:26;;;;;;;;;;;;;;;;;;5074864;28;19913;-65
2022/09/13 09:20:52;;;;;;;;;;;;;;;;;;5085555;28;19912;-65
2022/09/13 09:23:17;;;;;;;;;;;;;;;;;;5092933;28;19908;-66
2022/09/13 09:25:42;;;;;;;;;;;;;;;;;;5095190;28;19948;-65
2022/09/13 09:28:07;;;;;;;;;;;;;;;;;;5079575;28;19913;-65
2022/09/13 09:30:33;;;;;;;;;;;;;;;;;;5087493;28;20325;-65
2022/09/13 09:32:58;;;;;;;;;;;;;;;;;;5073259;28;20060;-65
2022/09/13 09:35:23;;;;;;;;;;;;;;;;;;5072222;28;20140;-66
2022/09/13 09:37:48;;;;;;;;;;;;;;;;;;5079053;28;20322;-66
2022/09/13 09:40:15;;;;;;;;;;;;;;;;;;5076154;28;20372;-67
2022/09/13 09:42:41;;;;;;;;;;;;;;;;;;5066517;28;19912;-65
2022/09/13 09:45:07;;;;;;;;;;;;;;;;;;5069342;28;19928;-65
2022/09/13 09:47:32;;;;;;;;;;;;;;;;;;5081544;28;19912;-66
2022/09/13 09:50:11;;;;;;;;;;;;;;;;;;5103379;28;19916;-65
2022/09/13 09:52:38;;;;;;;;;;;;;;;;;;5080529;28;19994;-65
2022/09/13 09:55:03;;;;;;;;;;;;;;;;;;5063502;28;19918;-66
2022/09/13 09:57:28;;;;;;;;;;;;;;;;;;5080979;28;19920;-66
2022/09/13 09:59:53;;;;;;;;;;;;;;;;;;5083513;28;19919;-65
2022/09/13 10:02:19;;;;;;;;;;;;;;;;;;5079043;28;19912;-66
2022/09/13 10:04:44;;;;;;;;;;;;;;;;;;5072347;28;19995;-66
2022/09/13 10:07:09;;;;;;;;;;;;;;;;;;5083582;28;19912;-66
2022/09/13 10:09:36;;;;;;;;;;;;;;;;;;5086338;28;19915;-65
2022/09/13 10:12:01;;;;;;;;;;;;;;;;;;5072750;28;19913;-66
2022/09/13 10:14:26;;;;;;;;;;;;;;;;;;5086170;28;19917;-65
2022/09/13 10:16:52;;;;;;;;;;;;;;;;;;5096785;28;19927;-66
2022/09/13 10:19:17;;;;;;;;;;;;;;;;;;5100854;28;19912;-65
2022/09/13 10:21:42;;;;;;;;;;;;;;;;;;5088763;28;20375;-65
2022/09/13 10:24:07;;;;;;;;;;;;;;;;;;5088592;28;20002;-65
2022/09/13 10:26:32;;;;;;;;;;;;;;;;;;5056591;28;20250;-66
2022/09/13 10:28:58;;;;;;;;;;;;;;;;;;5092259;28;19912;-65
2022/09/13 10:31:23;;;;;;;;;;;;;;;;;;5084873;28;19917;-66
2022/09/13 10:33:48;;;;;;;;;;;;;;;;;;5060599;28;19920;-66
2022/09/13 10:36:13;;;;;;;;;;;;;;;;;;5092189;28;19908;-67
2022/09/13 10:38:38;;;;;;;;;;;;;;;;;;5091511;28;19912;-65
2022/09/13 10:41:03;;;;;;;;;;;;;;;;;;5082992;28;20019;-66
2022/09/13 10:43:28;;;;;;;;;;;;;;;;;;5073299;28;20330;-63
2022/09/13 10:45:54;;;;;;;;;;;;;;;;;;5077179;28;19912;-65
2022/09/13 10:48:19;;;;;;;;;;;;;;;;;;5087618;28;20360;-63
2022/09/13 10:50:44;;;;;;;;;;;;;;;;;;5090324;28;20429;-63
2022/09/13 10:53:09;;;;;;;;;;;;;;;;;;5081686;28;20376;-63
2022/09/13 10:55:34;;;;;;;;;;;;;;;;;;5082562;28;20287;-64
2022/09/13 10:58:00;;;;;;;;;;;;;;;;;;5093163;28;20296;-65
2022/09/13 11:00:29;;;;;;;;;;;;;;;;;;5070793;28;19970;-65
2022/09/13 11:02:55;;;;;;;;;;;;;;;;;;5076570;28;19916;-65
2022/09/13 11:05:20;;;;;;;;;;;;;;;;;;5086604;28;19923;-65
2022/09/13 11:07:45;;;;;;;;;;;;;;;;;;5082892;28;19969;-63
2022/09/13 11:10:10;;;;;;;;;;;;;;;;;;5084184;28;19920;-63
2022/09/13 11:12:35;;;;;;;;;;;;;;;;;;5088117;28;19923;-64
2022/09/13 11:15:01;;;;;;;;;;;;;;;;;;5086114;28;20364;-64
2022/09/13 11:17:26;;;;;;;;;;;;;;;;;;5062163;28;19970;-65
2022/09/13 11:19:52;;;;;;;;;;;;;;;;;;5062640;28;19912;-67
2022/09/13 11:22:17;;;;;;;;;;;;;;;;;;5059577;28;19913;-64
2022/09/13 11:24:42;;;;;;;;;;;;;;;;;;5065296;28;19967;-63
2022/09/13 11:27:08;;;;;;;;;;;;;;;;;;5057312;28;19908;-65
2022/09/13 11:29:33;;;;;;;;;;;;;;;;;;5043675;28;20265;-65
2022/09/13 11:31:58;;;;;;;;;;;;;;;;;;5062914;28;19926;-68
2022/09/13 11:34:23;;;;;;;;;;;;;;;;;;5063872;28;19916;-65
2022/09/13 11:36:48;;;;;;;;;;;;;;;;;;5044297;28;19998;-64
2022/09/13 11:39:14;;;;;;;;;;;;;;;;;;5048443;28;19912;-64
2022/09/13 11:41:39;;;;;;;;;;;;;;;;;;5068076;28;19948;-65
2022/09/13 11:44:05;;;;;;;;;;;;;;;;;;5071616;28;19975;-64
2022/09/13 11:46:30;;;;;;;;;;;;;;;;;;5061744;28;19920;-64
2022/09/13 11:48:55;;;;;;;;;;;;;;;;;;5048661;28;19923;-64
2022/09/13 11:51:20;;;;;;;;;;;;;;;;;;5066015;28;20007;-64
2022/09/13 11:53:49;;;;;;;;;;;;;;;;;;5069843;28;19924;-67
2022/09/13 11:56:14;;;;;;;;;;;;;;;;;;5066896;28;19939;-67
2022/09/13 11:58:39;;;;;;;;;;;;;;;;;;5065063;28;20348;-67
2022/09/13 12:01:04;;;;;;;;;;;;;;;;;;5068933;28;20288;-67
2022/09/13 12:03:29;;;;;;;;;;;;;;;;;;5047440;28;19916;-63
2022/09/13 12:05:54;;;;;;;;;;;;;;;;;;5064452;28;19920;-65
2022/09/13 12:08:19;;;;;;;;;;;;;;;;;;5049933;28;19913;-66
2022/09/13 12:10:45;;;;;;;;;;;;;;;;;;5066014;28;19999;-66
2022/09/13 12:13:10;;;;;;;;;;;;;;;;;;5066569;28;19912;-66
2022/09/13 12:15:36;;;;;;;;;;;;;;;;;;5072175;28;19936;-65
2022/09/13 12:18:01;;;;;;;;;;;;;;;;;;5083586;28;19927;-64
2022/09/13 12:20:26;;;;;;;;;;;;;;;;;;5089349;28;19964;-65
2022/09/13 12:22:51;;;;;;;;;;;;;;;;;;5085906;28;20406;-66
2022/09/13 12:25:17;;;;;;;;;;;;;;;;;;5071081;28;20300;-64
2022/09/13 12:27:42;;;;;;;;;;;;;;;;;;5085281;28;19912;-68
2022/09/13 12:30:07;;;;;;;;;;;;;;;;;;5087851;28;19912;-63
2022/09/13 12:32:32;;;;;;;;;;;;;;;;;;5080093;28;19923;-65
2022/09/13 12:34:57;;;;;;;;;;;;;;;;;;5087096;28;20019;-66
2022/09/13 12:37:22;;;;;;;;;;;;;;;;;;5066462;28;19912;-68
2022/09/13 12:39:47;;;;;;;;;;;;;;;;;;5080770;28;19927;-66
2022/09/13 12:42:15;;;;;;;;;;;;;;;;;;5081260;28;19913;-69
2022/09/13 12:44:41;;;;;;;;;;;;;;;;;;5081535;28;19965;-68
2022/09/13 12:47:06;;;;;;;;;;;;;;;;;;5086780;28;19921;-68
2022/09/13 12:49:32;;;;;;;;;;;;;;;;;;5073115;28;19966;-68
2022/09/13 12:51:57;;;;;;;;;;;;;;;;;;5068222;28;19920;-67
2022/09/13 12:54:22;;;;;;;;;;;;;;;;;;5089464;28;19920;-67
2022/09/13 12:56:47;;;;;;;;;;;;;;;;;;5073955;28;19912;-69
2022/09/13 12:59:12;;;;;;;;;;;;;;;;;;5064134;28;20023;-67
2022/09/13 13:01:37;;;;;;;;;;;;;;;;;;5082056;28;19919;-68
2022/09/13 13:04:02;;;;;;;;;;;;;;;;;;5059284;28;20288;-68
2022/09/13 13:06:28;;;;;;;;;;;;;;;;;;5080977;28;19923;-71
2022/09/13 13:08:53;;;;;;;;;;;;;;;;;;5060990;28;19965;-69
2022/09/13 13:11:18;;;;;;;;;;;;;;;;;;5054831;28;19930;-69
2022/09/13 13:13:43;;;;;;;;;;;;;;;;;;5080236;28;19920;-68
2022/09/13 13:16:08;;;;;;;;;;;;;;;;;;5077524;28;21900;-69
2022/09/13 13:18:33;;;;;;;;;;;;;;;;;;5063163;28;20291;-69
2022/09/13 13:20:58;;;;;;;;;;;;;;;;;;5076361;28;20353;-68
2022/09/13 13:23:24;;;;;;;;;;;;;;;;;;5074581;28;19961;-68
2022/09/13 13:25:49;;;;;;;;;;;;;;;;;;5085250;28;19912;-68
2022/09/13 13:28:14;;;;;;;;;;;;;;;;;;5087495;28;19995;-69
2022/09/13 13:30:39;;;;;;;;;;;;;;;;;;5060458;28;19965;-68
2022/09/13 13:33:05;;;;;;;;;;;;;;;;;;5073881;28;19920;-68
2022/09/13 13:35:31;;;;;;;;;;;;;;;;;;5086336;28;19912;-69
2022/09/13 13:37:56;;;;;;;;;;;;;;;;;;5086888;28;19916;-69
2022/09/13 13:40:21;;;;;;;;;;;;;;;;;;5085560;28;19920;-69
2022/09/13 13:42:46;;;;;;;;;;;;;;;;;;5072362;28;19912;-69
2022/09/13 13:45:12;;;;;;;;;;;;;;;;;;5062261;28;19966;-67
2022/09/13 13:47:37;;;;;;;;;;;;;;;;;;5062233;28;20342;-68
2022/09/13 13:50:02;;;;;;;;;;;;;;;;;;5080154;28;19912;-68
2022/09/13 13:52:28;;;;;;;;;;;;;;;;;;5059804;28;20345;-68
2022/09/13 13:54:54;;;;;;;;;;;;;;;;;;5077803;28;19935;-67
2022/09/13 13:57:19;;;;;;;;;;;;;;;;;;5090986;28;20372;-68
2022/09/13 13:59:44;;;;;;;;;;;;;;;;;;5071570;28;19920;-68
2022/09/13 14:02:09;;;;;;;;;;;;;;;;;;5062349;28;19959;-67
2022/09/13 14:04:35;;;;;;;;;;;;;;;;;;5082630;28;19912;-69
2022/09/13 14:07:00;;;;;;;;;;;;;;;;;;5088510;28;19912;-68
2022/09/13 14:09:25;;;;;;;;;;;;;;;;;;5082417;28;19919;-69
2022/09/13 14:11:50;;;;;;;;;;;;;;;;;;5068143;28;20376;-70
2022/09/13 14:14:15;;;;;;;;;;;;;;;;;;5079037;28;19962;-67
2022/09/13 14:16:40;;;;;;;;;;;;;;;;;;5057758;28;19920;-68
2022/09/13 14:19:06;;;;;;;;;;;;;;;;;;5062915;28;19912;-68
2022/09/13 14:21:31;;;;;;;;;;;;;;;;;;5081340;28;19913;-68
2022/09/13 14:23:56;;;;;;;;;;;;;;;;;;5064061;28;19966;-68
2022/09/13 14:26:21;;;;;;;;;;;;;;;;;;5087036;28;19948;-68
2022/09/13 14:28:46;;;;;;;;;;;;;;;;;;5083122;28;19919;-69
2022/09/13 14:31:11;;;;;;;;;;;;;;;;;;5059899;28;19916;-68
2022/09/13 14:33:37;;;;;;;;;;;;;;;;;;5085495;28;19916;-68
2022/09/13 14:36:02;;;;;;;;;;;;;;;;;;5086127;28;20455;-68
2022/09/13 14:38:34;;;;;;;;;;;;;;;;;;5057422;28;19991;-69
2022/09/13 14:40:59;;;;;;;;;;;;;;;;;;5080631;28;19920;-69
2022/09/13 14:43:24;;;;;;;;;;;;;;;;;;5089267;28;19912;-68
2022/09/13 14:45:49;;;;;;;;;;;;;;;;;;5081082;28;19925;-68
2022/09/13 14:48:14;;;;;;;;;;;;;;;;;;5079264;28;19927;-68
2022/09/13 14:50:39;;;;;;;;;;;;;;;;;;5091067;28;19912;-68
2022/09/13 14:53:04;;;;;;;;;;;;;;;;;;5092657;28;20288;-69
2022/09/13 14:55:30;;;;;;;;;;;;;;;;;;5086603;28;19912;-68
2022/09/13 14:57:57;;;;;;;;;;;;;;;;;;5088903;28;19908;-68
2022/09/13 15:00:23;;;;;;;;;;;;;;;;;;5087500;28;19962;-69
2022/09/13 15:02:48;;;;;;;;;;;;;;;;;;5056352;28;20326;-67
2022/09/13 15:05:13;;;;;;;;;;;;;;;;;;5065447;28;19913;-68
2022/09/13 15:07:38;;;;;;;;;;;;;;;;;;5074628;28;19913;-68
2022/09/13 15:10:04;;;;;;;;;;;;;;;;;;5082578;28;19915;-67
2022/09/13 15:12:29;;;;;;;;;;;;;;;;;;5076204;28;20003;-67
2022/09/13 15:14:54;;;;;;;;;;;;;;;;;;5066884;28;19908;-68
2022/09/13 15:17:19;;;;;;;;;;;;;;;;;;5068614;28;20347;-68
2022/09/13 15:19:44;;;;;;;;;;;;;;;;;;5063560;28;19912;-67
2022/09/13 15:22:09;;;;;;;;;;;;;;;;;;5045645;28;19960;-67
2022/09/13 15:24:34;;;;;;;;;;;;;;;;;;5045242;28;19916;-68
2022/09/13 15:26:59;;;;;;;;;;;;;;;;;;5041032;28;20015;-67
2022/09/13 15:29:25;;;;;;;;;;;;;;;;;;5043934;28;20382;-69
2022/09/13 15:31:50;;;;;;;;;;;;;;;;;;5066507;28;20257;-67
2022/09/13 15:34:15;;;;;;;;;;;;;;;;;;5063759;28;20074;-67
2022/09/13 15:36:40;;;;;;;;;;;;;;;;;;5043398;28;19927;-68
2022/09/13 15:39:06;;;;;;;;;;;;;;;;;;5041288;28;20369;-68
2022/09/13 15:41:31;;;;;;;;;;;;;;;;;;5042209;28;19916;-68
2022/09/13 15:43:56;;;;;;;;;;;;;;;;;;5057899;28;19912;-67
2022/09/13 15:46:21;;;;;;;;;;;;;;;;;;5045523;28;20420;-68
2022/09/13 15:48:46;;;;;;;;;;;;;;;;;;5043950;28;19952;-67
2022/09/13 15:51:11;;;;;;;;;;;;;;;;;;5057097;28;19928;-67
2022/09/13 15:53:37;;;;;;;;;;;;;;;;;;5066607;28;19920;-68
2022/09/13 15:56:02;;;;;;;;;;;;;;;;;;5066253;28;19913;-67
2022/09/13 15:58:27;;;;;;;;;;;;;;;;;;5072815;28;20430;-65
2022/09/13 16:00:53;;;;;;;;;;;;;;;;;;5063882;28;20376;-67
2022/09/13 16:03:18;;;;;;;;;;;;;;;;;;5066798;28;19966;-67
2022/09/13 16:05:43;;;;;;;;;;;;;;;;;;5066917;28;19916;-68
2022/09/13 16:08:09;;;;;;;;;;;;;;;;;;5047858;28;19920;-69
2022/09/13 16:10:34;;;;;;;;;;;;;;;;;;5059318;28;19967;-67
2022/09/13 16:12:59;;;;;;;;;;;;;;;;;;5047331;28;20399;-68
2022/09/13 16:15:24;;;;;;;;;;;;;;;;;;5070065;28;19920;-67
2022/09/13 16:17:49;;;;;;;;;;;;;;;;;;5086041;28;20018;-67
2022/09/13 16:20:14;;;;;;;;;;;;;;;;;;5061958;28;19924;-67
2022/09/13 16:22:40;;;;;;;;;;;;;;;;;;5074326;28;19912;-67
2022/09/13 16:25:05;;;;;;;;;;;;;;;;;;5079899;28;20007;-67
2022/09/13 16:27:30;;;;;;;;;;;;;;;;;;5084100;28;20361;-64
2022/09/13 16:29:55;;;;;;;;;;;;;;;;;;5079473;28;20115;-63
2022/09/13 16:32:21;;;;;;;;;;;;;;;;;;5060028;28;19923;-68